sensor_id;sensor_type;location;lat;lon;timestamp;temperature;humidity
26952;DHT22;14507;52.418;13.398;2022-12-18T00:01:37;-4.00;99.90
26952;DHT22;14507;52.418;13.398;2022-12-18T00:04:04;-4.10;99.90
26952;DHT22;14507;52.418;13.398;2022-12-18T00:06:31;-4.10;99.90
26952;DHT22;14507;52.418;13.398;2022-12-18T00:08:59;-4.10;99.90
26952;DHT22;14507;52.418;13.398;2022-12-18T00:11:27;-4.20;99.90
26952;DHT22;14507;52.418;13.398;2022-12-18T00:13:54;-4.20;99.90
26952;DHT22;14507;52.418;13.398;2022-12-18T00:16:23;-4.30;99.90
26952;DHT22;14507;52.418;13.398;2022-12-18T00:18:50;-4.40;99.90
26952;DHT22;14507;52.418;13.398;2022-12-18T00:21:17;-4.40;99.90
26952;DHT22;14507;52.418;13.398;2022-12-18T00:23:44;-4.40;99.90
26952;DHT22;14507;52.418;13.398;2022-12-18T00:26:17;-4.40;99.90
26952;DHT22;14507;52.418;13.398;2022-12-18T00:28:43;-4.40;99.90
26952;DHT22;14507;52.418;13.398;2022-12-18T00:31:18;-4.40;99.90
26952;DHT22;14507;52.418;13.398;2022-12-18T00:33:44;-4.30;99.90
26952;DHT22;14507;52.418;13.398;2022-12-18T00:36:18;-4.40;99.90
26952;DHT22;14507;52.418;13.398;2022-12-18T00:38:45;-4.40;99.90
26952;DHT22;14507;52.418;13.398;2022-12-18T00:41:13;-4.50;99.90
26952;DHT22;14507;52.418;13.398;2022-12-18T00:43:39;-4.50;99.90
26952;DHT22;14507;52.418;13.398;2022-12-18T00:46:05;-4.60;99.90
26952;DHT22;14507;52.418;13.398;2022-12-18T00:48:31;-4.60;99.90
26952;DHT22;14507;52.418;13.398;2022-12-18T00:50:57;-4.70;99.90
26952;DHT22;14507;52.418;13.398;2022-12-18T00:53:23;-4.70;99.90
26952;DHT22;14507;52.418;13.398;2022-12-18T00:55:48;-4.70;99.90
26952;DHT22;14507;52.418;13.398;2022-12-18T00:58:16;-4.70;99.90
26952;DHT22;14507;52.418;13.398;2022-12-18T01:00:42;-4.60;99.90
26952;DHT22;14507;52.418;13.398;2022-12-18T01:03:09;-4.60;99.90
26952;DHT22;14507;52.418;13.398;2022-12-18T01:05:42;-4.60;99.90
26952;DHT22;14507;52.418;13.398;2022-12-18T01:08:07;-4.60;99.90
26952;DHT22;14507;52.418;13.398;2022-12-18T01:10:33;-4.60;99.90
26952;DHT22;14507;52.418;13.398;2022-12-18T01:12:59;-4.60;99.90
26952;DHT22;14507;52.418;13.398;2022-12-18T01:15:24;-4.50;99.90
26952;DHT22;14507;52.418;13.398;2022-12-18T01:17:52;-4.60;99.90
26952;DHT22;14507;52.418;13.398;2022-12-18T01:20:18;-4.60;99.90
26952;DHT22;14507;52.418;13.398;2022-12-18T01:22:43;-4.60;99.90
26952;DHT22;14507;52.418;13.398;2022-12-18T01:25:09;-4.70;99.90
26952;DHT22;14507;52.418;13.398;2022-12-18T01:27:35;-4.70;99.90
26952;DHT22;14507;52.418;13.398;2022-12-18T01:30:00;-4.70;99.90
26952;DHT22;14507;52.418;13.398;2022-12-18T01:32:28;-4.60;99.90
26952;DHT22;14507;52.418;13.398;2022-12-18T01:34:54;-4.50;99.90
26952;DHT22;14507;52.418;13.398;2022-12-18T01:37:20;-4.70;99.90
26952;DHT22;14507;52.418;13.398;2022-12-18T01:39:45;-4.70;99.90
26952;DHT22;14507;52.418;13.398;2022-12-18T01:42:15;-4.70;99.90
26952;DHT22;14507;52.418;13.398;2022-12-18T01:47:20;-4.70;99.90
26952;DHT22;14507;52.418;13.398;2022-12-18T01:49:47;-4.70;99.90
26952;DHT22;14507;52.418;13.398;2022-12-18T01:52:15;-4.80;99.90
26952;DHT22;14507;52.418;13.398;2022-12-18T01:54:42;-4.80;99.90
26952;DHT22;14507;52.418;13.398;2022-12-18T01:57:08;-4.80;99.90
26952;DHT22;14507;52.418;13.398;2022-12-18T01:59:33;-4.90;99.90
26952;DHT22;14507;52.418;13.398;2022-12-18T02:02:01;-4.90;99.90
26952;DHT22;14507;52.418;13.398;2022-12-18T02:04:27;-4.80;99.90
26952;DHT22;14507;52.418;13.398;2022-12-18T02:07:25;-4.80;99.90
26952;DHT22;14507;52.418;13.398;2022-12-18T02:10:08;-4.80;99.90
26952;DHT22;14507;52.418;13.398;2022-12-18T02:15:14;-4.80;99.90
26952;DHT22;14507;52.418;13.398;2022-12-18T02:17:54;-4.80;99.90
26952;DHT22;14507;52.418;13.398;2022-12-18T02:26:17;-4.80;99.90
26952;DHT22;14507;52.418;13.398;2022-12-18T02:28:52;-4.80;99.90
26952;DHT22;14507;52.418;13.398;2022-12-18T02:31:24;-4.80;99.90
26952;DHT22;14507;52.418;13.398;2022-12-18T02:33:53;-4.80;99.90
26952;DHT22;14507;52.418;13.398;2022-12-18T02:36:20;-4.70;99.90
26952;DHT22;14507;52.418;13.398;2022-12-18T02:38:47;-4.80;99.90
26952;DHT22;14507;52.418;13.398;2022-12-18T02:41:14;-4.80;99.90
26952;DHT22;14507;52.418;13.398;2022-12-18T02:43:49;-4.70;99.90
26952;DHT22;14507;52.418;13.398;2022-12-18T02:46:37;-4.80;99.90
26952;DHT22;14507;52.418;13.398;2022-12-18T02:52:33;-4.80;99.90
26952;DHT22;14507;52.418;13.398;2022-12-18T02:55:26;-4.80;99.90
26952;DHT22;14507;52.418;13.398;2022-12-18T02:57:58;-4.90;99.90
26952;DHT22;14507;52.418;13.398;2022-12-18T03:00:33;-4.90;99.90
26952;DHT22;14507;52.418;13.398;2022-12-18T03:03:16;-4.90;99.90
26952;DHT22;14507;52.418;13.398;2022-12-18T03:05:51;-4.90;99.90
26952;DHT22;14507;52.418;13.398;2022-12-18T03:08:28;-4.90;99.90
26952;DHT22;14507;52.418;13.398;2022-12-18T03:11:02;-5.00;99.90
26952;DHT22;14507;52.418;13.398;2022-12-18T03:16:04;-5.00;99.90
26952;DHT22;14507;52.418;13.398;2022-12-18T03:18:36;-5.10;99.90
26952;DHT22;14507;52.418;13.398;2022-12-18T03:21:06;-5.20;99.90
26952;DHT22;14507;52.418;13.398;2022-12-18T03:23:38;-5.20;99.90
26952;DHT22;14507;52.418;13.398;2022-12-18T03:26:08;-5.20;99.90
26952;DHT22;14507;52.418;13.398;2022-12-18T03:28:38;-5.20;99.90
26952;DHT22;14507;52.418;13.398;2022-12-18T03:31:07;-5.20;99.90
26952;DHT22;14507;52.418;13.398;2022-12-18T03:33:54;-5.20;99.90
26952;DHT22;14507;52.418;13.398;2022-12-18T03:36:21;-5.20;99.90
26952;DHT22;14507;52.418;13.398;2022-12-18T03:38:48;-5.20;99.90
26952;DHT22;14507;52.418;13.398;2022-12-18T03:41:36;-5.20;99.90
26952;DHT22;14507;52.418;13.398;2022-12-18T03:44:13;-5.20;99.90
26952;DHT22;14507;52.418;13.398;2022-12-18T03:47:06;-5.10;99.90
26952;DHT22;14507;52.418;13.398;2022-12-18T03:52:39;-5.30;99.90
26952;DHT22;14507;52.418;13.398;2022-12-18T03:55:08;-5.30;99.90
26952;DHT22;14507;52.418;13.398;2022-12-18T03:57:35;-5.30;99.90
26952;DHT22;14507;52.418;13.398;2022-12-18T04:00:08;-5.30;99.90
26952;DHT22;14507;52.418;13.398;2022-12-18T04:02:35;-5.30;99.90
26952;DHT22;14507;52.418;13.398;2022-12-18T04:05:05;-5.30;99.90
26952;DHT22;14507;52.418;13.398;2022-12-18T04:07:32;-5.30;99.90
26952;DHT22;14507;52.418;13.398;2022-12-18T04:09:59;-5.30;99.90
26952;DHT22;14507;52.418;13.398;2022-12-18T04:12:26;-5.40;99.90
26952;DHT22;14507;52.418;13.398;2022-12-18T04:14:54;-5.40;99.90
26952;DHT22;14507;52.418;13.398;2022-12-18T04:17:19;-5.40;99.90
26952;DHT22;14507;52.418;13.398;2022-12-18T04:19:45;-5.20;99.90
26952;DHT22;14507;52.418;13.398;2022-12-18T04:22:11;-5.30;99.90
26952;DHT22;14507;52.418;13.398;2022-12-18T04:24:36;-5.30;99.90
26952;DHT22;14507;52.418;13.398;2022-12-18T04:27:03;-5.30;99.90
26952;DHT22;14507;52.418;13.398;2022-12-18T04:29:28;-5.30;99.90
26952;DHT22;14507;52.418;13.398;2022-12-18T04:31:54;-5.50;99.90
26952;DHT22;14507;52.418;13.398;2022-12-18T04:34:20;-5.50;99.90
26952;DHT22;14507;52.418;13.398;2022-12-18T04:36:46;-5.50;99.90
26952;DHT22;14507;52.418;13.398;2022-12-18T04:39:12;-5.50;99.90
26952;DHT22;14507;52.418;13.398;2022-12-18T04:41:37;-5.40;99.90
26952;DHT22;14507;52.418;13.398;2022-12-18T04:44:03;-5.50;99.90
26952;DHT22;14507;52.418;13.398;2022-12-18T04:46:29;-5.50;99.90
26952;DHT22;14507;52.418;13.398;2022-12-18T04:48:54;-5.50;99.90
26952;DHT22;14507;52.418;13.398;2022-12-18T04:51:20;-5.50;99.90
26952;DHT22;14507;52.418;13.398;2022-12-18T04:53:46;-5.50;99.90
26952;DHT22;14507;52.418;13.398;2022-12-18T04:56:13;-5.40;99.90
26952;DHT22;14507;52.418;13.398;2022-12-18T04:58:41;-5.50;99.90
26952;DHT22;14507;52.418;13.398;2022-12-18T05:01:07;-5.50;99.90
26952;DHT22;14507;52.418;13.398;2022-12-18T05:03:34;-5.50;99.90
26952;DHT22;14507;52.418;13.398;2022-12-18T05:06:00;-5.50;99.90
26952;DHT22;14507;52.418;13.398;2022-12-18T05:08:25;-5.50;99.90
26952;DHT22;14507;52.418;13.398;2022-12-18T05:11:03;-5.50;99.90
26952;DHT22;14507;52.418;13.398;2022-12-18T05:13:29;-5.50;99.90
26952;DHT22;14507;52.418;13.398;2022-12-18T05:15:55;-5.40;99.90
26952;DHT22;14507;52.418;13.398;2022-12-18T05:18:22;-5.50;99.90
26952;DHT22;14507;52.418;13.398;2022-12-18T05:20:47;-5.40;99.90
26952;DHT22;14507;52.418;13.398;2022-12-18T05:23:14;-5.40;99.90
26952;DHT22;14507;52.418;13.398;2022-12-18T05:25:39;-5.40;99.90
26952;DHT22;14507;52.418;13.398;2022-12-18T05:28:05;-5.40;99.90
26952;DHT22;14507;52.418;13.398;2022-12-18T05:30:30;-5.30;99.90
26952;DHT22;14507;52.418;13.398;2022-12-18T05:32:56;-5.40;99.90
26952;DHT22;14507;52.418;13.398;2022-12-18T05:35:22;-5.40;99.90
26952;DHT22;14507;52.418;13.398;2022-12-18T05:37:47;-5.40;99.90
26952;DHT22;14507;52.418;13.398;2022-12-18T05:40:13;-5.40;99.90
26952;DHT22;14507;52.418;13.398;2022-12-18T05:42:39;-5.40;99.90
26952;DHT22;14507;52.418;13.398;2022-12-18T05:45:05;-5.40;99.90
26952;DHT22;14507;52.418;13.398;2022-12-18T05:47:31;-5.40;99.90
26952;DHT22;14507;52.418;13.398;2022-12-18T05:49:56;-5.50;99.90
26952;DHT22;14507;52.418;13.398;2022-12-18T05:52:22;-5.50;99.90
26952;DHT22;14507;52.418;13.398;2022-12-18T05:54:48;-5.50;99.90
26952;DHT22;14507;52.418;13.398;2022-12-18T05:57:13;-5.50;99.90
26952;DHT22;14507;52.418;13.398;2022-12-18T05:59:39;-5.60;99.90
26952;DHT22;14507;52.418;13.398;2022-12-18T06:02:05;-5.60;99.90
26952;DHT22;14507;52.418;13.398;2022-12-18T06:04:30;-5.60;99.90
26952;DHT22;14507;52.418;13.398;2022-12-18T06:06:56;-5.50;99.90
26952;DHT22;14507;52.418;13.398;2022-12-18T06:09:22;-5.50;99.90
26952;DHT22;14507;52.418;13.398;2022-12-18T06:11:47;-5.50;99.90
26952;DHT22;14507;52.418;13.398;2022-12-18T06:14:13;-5.00;99.90
26952;DHT22;14507;52.418;13.398;2022-12-18T06:16:39;-5.50;99.90
26952;DHT22;14507;52.418;13.398;2022-12-18T06:19:05;-5.50;99.90
26952;DHT22;14507;52.418;13.398;2022-12-18T06:21:32;-5.50;99.90
26952;DHT22;14507;52.418;13.398;2022-12-18T06:23:57;-5.40;99.90
26952;DHT22;14507;52.418;13.398;2022-12-18T06:26:23;-5.40;99.90
26952;DHT22;14507;52.418;13.398;2022-12-18T06:28:49;-5.40;99.90
26952;DHT22;14507;52.418;13.398;2022-12-18T06:31:14;-5.40;99.90
26952;DHT22;14507;52.418;13.398;2022-12-18T06:33:41;-5.40;99.90
26952;DHT22;14507;52.418;13.398;2022-12-18T06:36:09;-5.40;99.90
26952;DHT22;14507;52.418;13.398;2022-12-18T06:38:37;-5.40;99.90
26952;DHT22;14507;52.418;13.398;2022-12-18T06:41:14;-5.40;99.90
26952;DHT22;14507;52.418;13.398;2022-12-18T06:43:40;-5.30;99.90
26952;DHT22;14507;52.418;13.398;2022-12-18T06:46:06;-5.30;99.90
26952;DHT22;14507;52.418;13.398;2022-12-18T06:48:32;-5.30;99.90
26952;DHT22;14507;52.418;13.398;2022-12-18T06:50:58;-5.30;99.90
26952;DHT22;14507;52.418;13.398;2022-12-18T06:53:24;-5.30;99.90
26952;DHT22;14507;52.418;13.398;2022-12-18T06:55:49;-5.30;99.90
26952;DHT22;14507;52.418;13.398;2022-12-18T06:58:15;-5.30;99.90
26952;DHT22;14507;52.418;13.398;2022-12-18T07:00:41;-5.30;99.90
26952;DHT22;14507;52.418;13.398;2022-12-18T07:03:07;-5.40;99.90
26952;DHT22;14507;52.418;13.398;2022-12-18T07:05:33;-5.40;99.90
26952;DHT22;14507;52.418;13.398;2022-12-18T07:07:59;-5.30;99.90
26952;DHT22;14507;52.418;13.398;2022-12-18T07:10:24;-5.20;99.90
26952;DHT22;14507;52.418;13.398;2022-12-18T07:12:50;-5.30;99.90
26952;DHT22;14507;52.418;13.398;2022-12-18T07:15:16;-5.20;99.90
26952;DHT22;14507;52.418;13.398;2022-12-18T07:17:41;-5.30;99.90
26952;DHT22;14507;52.418;13.398;2022-12-18T07:20:08;-5.30;99.90
26952;DHT22;14507;52.418;13.398;2022-12-18T07:22:33;-5.40;99.90
26952;DHT22;14507;52.418;13.398;2022-12-18T07:24:59;-5.40;99.90
26952;DHT22;14507;52.418;13.398;2022-12-18T07:27:25;-5.40;99.90
26952;DHT22;14507;52.418;13.398;2022-12-18T07:29:50;-5.30;99.90
26952;DHT22;14507;52.418;13.398;2022-12-18T07:32:16;-5.30;99.90
26952;DHT22;14507;52.418;13.398;2022-12-18T07:34:41;-5.30;99.90
26952;DHT22;14507;52.418;13.398;2022-12-18T07:37:07;-5.20;99.90
26952;DHT22;14507;52.418;13.398;2022-12-18T07:39:33;-5.20;99.90
26952;DHT22;14507;52.418;13.398;2022-12-18T07:41:58;-5.20;99.90
26952;DHT22;14507;52.418;13.398;2022-12-18T07:44:42;-5.10;99.90
26952;DHT22;14507;52.418;13.398;2022-12-18T07:47:08;-5.10;99.90
26952;DHT22;14507;52.418;13.398;2022-12-18T07:49:34;-5.00;99.90
26952;DHT22;14507;52.418;13.398;2022-12-18T07:51:59;-5.10;99.90
26952;DHT22;14507;52.418;13.398;2022-12-18T07:54:25;-5.10;99.90
26952;DHT22;14507;52.418;13.398;2022-12-18T07:56:51;-5.10;99.90
26952;DHT22;14507;52.418;13.398;2022-12-18T07:59:17;-5.10;99.90
26952;DHT22;14507;52.418;13.398;2022-12-18T08:01:44;-5.10;99.90
26952;DHT22;14507;52.418;13.398;2022-12-18T08:04:09;-5.10;99.90
26952;DHT22;14507;52.418;13.398;2022-12-18T08:06:35;-5.20;99.90
26952;DHT22;14507;52.418;13.398;2022-12-18T08:09:01;-5.10;99.90
26952;DHT22;14507;52.418;13.398;2022-12-18T08:11:28;-5.10;99.90
26952;DHT22;14507;52.418;13.398;2022-12-18T08:13:55;-5.10;99.90
26952;DHT22;14507;52.418;13.398;2022-12-18T08:16:21;-5.10;99.90
26952;DHT22;14507;52.418;13.398;2022-12-18T08:18:47;-5.10;99.90
26952;DHT22;14507;52.418;13.398;2022-12-18T08:21:19;-5.10;99.90
26952;DHT22;14507;52.418;13.398;2022-12-18T08:23:46;-5.10;99.90
26952;DHT22;14507;52.418;13.398;2022-12-18T08:26:12;-5.00;99.90
26952;DHT22;14507;52.418;13.398;2022-12-18T08:28:39;-5.10;99.90
26952;DHT22;14507;52.418;13.398;2022-12-18T08:31:04;-5.10;99.90
26952;DHT22;14507;52.418;13.398;2022-12-18T08:33:30;-5.10;99.90
26952;DHT22;14507;52.418;13.398;2022-12-18T08:35:58;-5.00;99.90
26952;DHT22;14507;52.418;13.398;2022-12-18T08:38:23;-5.00;99.90
26952;DHT22;14507;52.418;13.398;2022-12-18T08:40:49;-4.90;99.90
26952;DHT22;14507;52.418;13.398;2022-12-18T08:43:17;-4.90;99.90
26952;DHT22;14507;52.418;13.398;2022-12-18T08:46:02;-4.80;99.90
26952;DHT22;14507;52.418;13.398;2022-12-18T08:48:27;-4.80;99.90
26952;DHT22;14507;52.418;13.398;2022-12-18T08:50:57;-4.90;99.90
26952;DHT22;14507;52.418;13.398;2022-12-18T08:53:25;-4.90;99.90
26952;DHT22;14507;52.418;13.398;2022-12-18T08:55:50;-4.90;99.90
26952;DHT22;14507;52.418;13.398;2022-12-18T08:58:16;-4.90;99.90
26952;DHT22;14507;52.418;13.398;2022-12-18T09:00:41;-4.90;99.90
26952;DHT22;14507;52.418;13.398;2022-12-18T09:03:14;-4.90;99.90
26952;DHT22;14507;52.418;13.398;2022-12-18T09:05:40;-4.90;99.90
26952;DHT22;14507;52.418;13.398;2022-12-18T09:08:05;-4.80;99.90
26952;DHT22;14507;52.418;13.398;2022-12-18T09:10:31;-4.80;99.90
26952;DHT22;14507;52.418;13.398;2022-12-18T09:12:57;-4.70;99.90
26952;DHT22;14507;52.418;13.398;2022-12-18T09:15:23;-4.70;99.90
26952;DHT22;14507;52.418;13.398;2022-12-18T09:17:48;-4.60;99.90
26952;DHT22;14507;52.418;13.398;2022-12-18T09:20:15;-4.60;99.90
26952;DHT22;14507;52.418;13.398;2022-12-18T09:22:41;-4.60;99.90
26952;DHT22;14507;52.418;13.398;2022-12-18T09:25:07;-4.60;99.90
26952;DHT22;14507;52.418;13.398;2022-12-18T09:27:33;-4.50;99.90
26952;DHT22;14507;52.418;13.398;2022-12-18T09:29:59;-4.50;99.90
26952;DHT22;14507;52.418;13.398;2022-12-18T09:32:25;-4.50;99.90
26952;DHT22;14507;52.418;13.398;2022-12-18T09:34:50;-4.40;99.90
26952;DHT22;14507;52.418;13.398;2022-12-18T09:37:16;-4.40;99.90
26952;DHT22;14507;52.418;13.398;2022-12-18T09:39:41;-4.40;99.90
26952;DHT22;14507;52.418;13.398;2022-12-18T09:42:21;-4.30;99.90
26952;DHT22;14507;52.418;13.398;2022-12-18T09:44:54;-4.30;99.90
26952;DHT22;14507;52.418;13.398;2022-12-18T09:47:21;-4.30;99.90
26952;DHT22;14507;52.418;13.398;2022-12-18T09:49:58;-4.30;99.90
26952;DHT22;14507;52.418;13.398;2022-12-18T09:55:08;-4.30;99.90
26952;DHT22;14507;52.418;13.398;2022-12-18T09:57:39;-4.30;99.90
26952;DHT22;14507;52.418;13.398;2022-12-18T10:00:25;-4.30;99.90
26952;DHT22;14507;52.418;13.398;2022-12-18T10:02:53;-4.30;99.90
26952;DHT22;14507;52.418;13.398;2022-12-18T10:06:35;-4.20;99.90
26952;DHT22;14507;52.418;13.398;2022-12-18T10:14:23;-4.00;99.90
26952;DHT22;14507;52.418;13.398;2022-12-18T10:19:46;-4.00;99.90
26952;DHT22;14507;52.418;13.398;2022-12-18T10:22:26;-4.00;99.90
26952;DHT22;14507;52.418;13.398;2022-12-18T10:27:39;-3.90;99.90
26952;DHT22;14507;52.418;13.398;2022-12-18T10:30:20;-3.80;99.90
26952;DHT22;14507;52.418;13.398;2022-12-18T10:32:46;-3.80;99.90
26952;DHT22;14507;52.418;13.398;2022-12-18T10:35:21;-3.80;99.90
26952;DHT22;14507;52.418;13.398;2022-12-18T10:38:23;-3.70;99.90
26952;DHT22;14507;52.418;13.398;2022-12-18T10:40:53;-3.70;99.90
26952;DHT22;14507;52.418;13.398;2022-12-18T10:43:22;-3.60;99.90
26952;DHT22;14507;52.418;13.398;2022-12-18T10:48:24;-3.60;99.90
26952;DHT22;14507;52.418;13.398;2022-12-18T10:50:51;-3.50;99.90
26952;DHT22;14507;52.418;13.398;2022-12-18T10:53:25;-3.50;99.90
26952;DHT22;14507;52.418;13.398;2022-12-18T10:55:53;-3.40;99.90
26952;DHT22;14507;52.418;13.398;2022-12-18T10:58:35;-3.40;99.90
26952;DHT22;14507;52.418;13.398;2022-12-18T11:01:14;-3.40;99.90
26952;DHT22;14507;52.418;13.398;2022-12-18T11:06:17;-3.40;99.90
26952;DHT22;14507;52.418;13.398;2022-12-18T11:09:00;-3.50;99.90
26952;DHT22;14507;52.418;13.398;2022-12-18T11:11:27;-3.40;99.90
26952;DHT22;14507;52.418;13.398;2022-12-18T11:14:04;-3.50;99.90
26952;DHT22;14507;52.418;13.398;2022-12-18T11:16:36;-3.40;99.90
26952;DHT22;14507;52.418;13.398;2022-12-18T11:19:30;-3.40;99.90
26952;DHT22;14507;52.418;13.398;2022-12-18T11:21:57;-3.40;99.90
26952;DHT22;14507;52.418;13.398;2022-12-18T11:24:34;-3.40;99.90
26952;DHT22;14507;52.418;13.398;2022-12-18T11:27:02;-3.30;99.90
26952;DHT22;14507;52.418;13.398;2022-12-18T11:29:35;-3.30;99.90
26952;DHT22;14507;52.418;13.398;2022-12-18T11:34:49;-3.40;99.90
26952;DHT22;14507;52.418;13.398;2022-12-18T11:37:17;-3.40;99.90
26952;DHT22;14507;52.418;13.398;2022-12-18T11:40:03;-3.50;99.90
26952;DHT22;14507;52.418;13.398;2022-12-18T11:42:44;-3.50;99.90
26952;DHT22;14507;52.418;13.398;2022-12-18T11:47:42;-3.50;99.90
26952;DHT22;14507;52.418;13.398;2022-12-18T11:50:23;-3.50;99.90
26952;DHT22;14507;52.418;13.398;2022-12-18T11:52:49;-3.50;99.90
26952;DHT22;14507;52.418;13.398;2022-12-18T11:55:50;-3.50;99.90
26952;DHT22;14507;52.418;13.398;2022-12-18T12:06:53;-3.40;99.90
26952;DHT22;14507;52.418;13.398;2022-12-18T12:15:13;-3.40;99.90
26952;DHT22;14507;52.418;13.398;2022-12-18T12:26:23;-3.30;99.90
26952;DHT22;14507;52.418;13.398;2022-12-18T12:31:58;-3.20;99.90
26952;DHT22;14507;52.418;13.398;2022-12-18T12:34:26;-3.20;99.90
26952;DHT22;14507;52.418;13.398;2022-12-18T12:39:39;-3.20;99.90
26952;DHT22;14507;52.418;13.398;2022-12-18T12:42:15;-3.20;99.90
26952;DHT22;14507;52.418;13.398;2022-12-18T12:45:05;-3.10;99.90
26952;DHT22;14507;52.418;13.398;2022-12-18T12:47:38;-3.10;99.90
26952;DHT22;14507;52.418;13.398;2022-12-18T12:50:13;-3.10;99.90
26952;DHT22;14507;52.418;13.398;2022-12-18T12:52:54;-3.00;99.90
26952;DHT22;14507;52.418;13.398;2022-12-18T12:55:26;-3.00;99.90
26952;DHT22;14507;52.418;13.398;2022-12-18T12:57:58;-3.00;99.90
26952;DHT22;14507;52.418;13.398;2022-12-18T13:00:27;-2.90;99.90
26952;DHT22;14507;52.418;13.398;2022-12-18T13:06:11;-2.90;99.90
26952;DHT22;14507;52.418;13.398;2022-12-18T13:08:59;-2.90;99.90
26952;DHT22;14507;52.418;13.398;2022-12-18T13:14:26;-3.00;99.90
26952;DHT22;14507;52.418;13.398;2022-12-18T13:17:24;-3.00;99.90
26952;DHT22;14507;52.418;13.398;2022-12-18T13:20:14;-3.00;99.90
26952;DHT22;14507;52.418;13.398;2022-12-18T13:22:48;-3.00;99.90
26952;DHT22;14507;52.418;13.398;2022-12-18T13:25:32;-3.00;99.90
26952;DHT22;14507;52.418;13.398;2022-12-18T13:28:05;-3.00;99.90
26952;DHT22;14507;52.418;13.398;2022-12-18T13:30:41;-3.00;99.90
26952;DHT22;14507;52.418;13.398;2022-12-18T13:43:53;-3.00;99.90
26952;DHT22;14507;52.418;13.398;2022-12-18T13:49:03;-3.10;99.90
26952;DHT22;14507;52.418;13.398;2022-12-18T13:51:31;-3.20;99.90
26952;DHT22;14507;52.418;13.398;2022-12-18T13:54:01;-3.20;99.90
26952;DHT22;14507;52.418;13.398;2022-12-18T13:56:30;-3.30;99.90
26952;DHT22;14507;52.418;13.398;2022-12-18T13:59:12;-3.30;99.90
26952;DHT22;14507;52.418;13.398;2022-12-18T14:01:51;-3.30;99.90
26952;DHT22;14507;52.418;13.398;2022-12-18T14:04:22;-3.30;99.90
26952;DHT22;14507;52.418;13.398;2022-12-18T14:06:50;-3.30;99.90
26952;DHT22;14507;52.418;13.398;2022-12-18T14:09:29;-3.30;99.90
26952;DHT22;14507;52.418;13.398;2022-12-18T14:11:56;-3.30;99.90
26952;DHT22;14507;52.418;13.398;2022-12-18T14:14:45;-3.30;99.90
26952;DHT22;14507;52.418;13.398;2022-12-18T14:17:13;-3.30;99.90
26952;DHT22;14507;52.418;13.398;2022-12-18T14:19:47;-3.30;99.90
26952;DHT22;14507;52.418;13.398;2022-12-18T14:22:19;-3.40;99.90
26952;DHT22;14507;52.418;13.398;2022-12-18T14:24:46;-3.40;99.90
26952;DHT22;14507;52.418;13.398;2022-12-18T14:27:24;-3.40;99.90
26952;DHT22;14507;52.418;13.398;2022-12-18T14:29:50;-3.40;99.90
26952;DHT22;14507;52.418;13.398;2022-12-18T14:32:18;-3.40;99.90
26952;DHT22;14507;52.418;13.398;2022-12-18T14:34:53;-3.30;99.90
26952;DHT22;14507;52.418;13.398;2022-12-18T14:37:24;-3.30;99.90
26952;DHT22;14507;52.418;13.398;2022-12-18T14:40:01;-3.30;99.90
26952;DHT22;14507;52.418;13.398;2022-12-18T14:42:28;-3.20;99.90
26952;DHT22;14507;52.418;13.398;2022-12-18T14:45:32;-3.20;99.90
26952;DHT22;14507;52.418;13.398;2022-12-18T14:47:59;-3.20;99.90
26952;DHT22;14507;52.418;13.398;2022-12-18T14:50:25;-3.30;99.90
26952;DHT22;14507;52.418;13.398;2022-12-18T14:52:51;-3.30;99.90
26952;DHT22;14507;52.418;13.398;2022-12-18T14:55:18;-3.30;99.90
26952;DHT22;14507;52.418;13.398;2022-12-18T14:57:45;-3.30;99.90
26952;DHT22;14507;52.418;13.398;2022-12-18T15:00:23;-3.40;99.90
26952;DHT22;14507;52.418;13.398;2022-12-18T15:02:54;-3.50;99.90
26952;DHT22;14507;52.418;13.398;2022-12-18T15:05:26;-3.60;99.90
26952;DHT22;14507;52.418;13.398;2022-12-18T15:07:58;-3.60;99.90
26952;DHT22;14507;52.418;13.398;2022-12-18T15:10:32;-3.60;99.90
26952;DHT22;14507;52.418;13.398;2022-12-18T15:23:24;-3.60;99.90
26952;DHT22;14507;52.418;13.398;2022-12-18T15:25:57;-3.60;99.90
26952;DHT22;14507;52.418;13.398;2022-12-18T15:31:20;-3.60;99.90
26952;DHT22;14507;52.418;13.398;2022-12-18T15:36:20;-3.60;99.90
26952;DHT22;14507;52.418;13.398;2022-12-18T15:38:52;-3.60;99.90
26952;DHT22;14507;52.418;13.398;2022-12-18T15:41:20;-3.60;99.90
26952;DHT22;14507;52.418;13.398;2022-12-18T15:43:48;-3.70;99.90
26952;DHT22;14507;52.418;13.398;2022-12-18T15:46:16;-3.60;99.90
26952;DHT22;14507;52.418;13.398;2022-12-18T15:48:47;-3.60;99.90
26952;DHT22;14507;52.418;13.398;2022-12-18T15:51:19;-3.70;99.90
26952;DHT22;14507;52.418;13.398;2022-12-18T15:53:47;-3.70;99.90
26952;DHT22;14507;52.418;13.398;2022-12-18T15:56:14;-3.70;99.90
26952;DHT22;14507;52.418;13.398;2022-12-18T15:58:59;-3.70;99.90
26952;DHT22;14507;52.418;13.398;2022-12-18T16:01:27;-3.70;99.90
26952;DHT22;14507;52.418;13.398;2022-12-18T16:03:53;-3.70;99.90
26952;DHT22;14507;52.418;13.398;2022-12-18T16:06:19;-3.70;99.90
26952;DHT22;14507;52.418;13.398;2022-12-18T16:08:45;-3.70;99.90
26952;DHT22;14507;52.418;13.398;2022-12-18T16:11:28;-3.80;99.90
26952;DHT22;14507;52.418;13.398;2022-12-18T16:14:24;-3.70;99.90
26952;DHT22;14507;52.418;13.398;2022-12-18T16:16:59;-3.80;99.90
26952;DHT22;14507;52.418;13.398;2022-12-18T16:19:27;-3.80;99.90
26952;DHT22;14507;52.418;13.398;2022-12-18T16:21:56;-3.80;99.90
26952;DHT22;14507;52.418;13.398;2022-12-18T16:24:32;-3.80;99.90
26952;DHT22;14507;52.418;13.398;2022-12-18T16:26:59;-3.70;99.90
26952;DHT22;14507;52.418;13.398;2022-12-18T16:29:26;-3.70;99.90
26952;DHT22;14507;52.418;13.398;2022-12-18T16:31:56;-3.70;99.90
26952;DHT22;14507;52.418;13.398;2022-12-18T16:34:26;-3.70;99.90
26952;DHT22;14507;52.418;13.398;2022-12-18T16:36:58;-3.70;99.90
26952;DHT22;14507;52.418;13.398;2022-12-18T16:39:25;-3.70;99.90
26952;DHT22;14507;52.418;13.398;2022-12-18T16:41:50;-3.70;99.90
26952;DHT22;14507;52.418;13.398;2022-12-18T16:44:16;-3.80;99.90
26952;DHT22;14507;52.418;13.398;2022-12-18T16:46:42;-3.80;99.90
26952;DHT22;14507;52.418;13.398;2022-12-18T16:49:10;-3.80;99.90
26952;DHT22;14507;52.418;13.398;2022-12-18T16:51:36;-3.80;99.90
26952;DHT22;14507;52.418;13.398;2022-12-18T16:54:02;-3.80;99.90
26952;DHT22;14507;52.418;13.398;2022-12-18T16:56:27;-3.90;99.90
26952;DHT22;14507;52.418;13.398;2022-12-18T16:58:55;-3.90;99.90
26952;DHT22;14507;52.418;13.398;2022-12-18T17:01:22;-3.90;99.90
26952;DHT22;14507;52.418;13.398;2022-12-18T17:03:55;-3.90;99.90
26952;DHT22;14507;52.418;13.398;2022-12-18T17:06:22;-3.90;99.90
26952;DHT22;14507;52.418;13.398;2022-12-18T17:11:24;-3.90;99.90
26952;DHT22;14507;52.418;13.398;2022-12-18T17:13:50;-3.90;99.90
26952;DHT22;14507;52.418;13.398;2022-12-18T17:16:16;-3.90;99.90
26952;DHT22;14507;52.418;13.398;2022-12-18T17:18:42;-4.00;99.90
26952;DHT22;14507;52.418;13.398;2022-12-18T17:21:09;-4.00;99.90
26952;DHT22;14507;52.418;13.398;2022-12-18T17:23:36;-4.00;99.90